sensor_id;sensor_type;location;lat;lon;timestamp;P1;durP1;ratioP1;P2;durP2;ratioP2
75737;SDS011;64356;45.638;13.764;2023-03-17T00:00:47;6.38;;;2.40;;
75737;SDS011;64356;45.638;13.764;2023-03-17T00:03:26;5.03;;;2.33;;
75737;SDS011;64356;45.638;13.764;2023-03-17T00:05:56;4.22;;;2.17;;
75737;SDS011;64356;45.638;13.764;2023-03-17T00:08:34;9.15;;;2.72;;
75737;SDS011;64356;45.638;13.764;2023-03-17T00:11:00;5.18;;;2.45;;
75737;SDS011;64356;45.638;13.764;2023-03-17T00:13:26;6.07;;;2.55;;
75737;SDS011;64356;45.638;13.764;2023-03-17T00:15:59;6.65;;;2.67;;
75737;SDS011;64356;45.638;13.764;2023-03-17T00:18:27;5.88;;;2.45;;
75737;SDS011;64356;45.638;13.764;2023-03-17T00:20:57;5.63;;;2.42;;
75737;SDS011;64356;45.638;13.764;2023-03-17T00:23:23;6.70;;;2.35;;
75737;SDS011;64356;45.638;13.764;2023-03-17T00:25:50;4.43;;;2.20;;
75737;SDS011;64356;45.638;13.764;2023-03-17T00:28:21;6.55;;;2.95;;
75737;SDS011;64356;45.638;13.764;2023-03-17T00:30:50;6.53;;;2.22;;
75737;SDS011;64356;45.638;13.764;2023-03-17T00:33:19;2.58;;;1.85;;
75737;SDS011;64356;45.638;13.764;2023-03-17T00:35:49;4.75;;;2.53;;
75737;SDS011;64356;45.638;13.764;2023-03-17T00:38:17;5.90;;;3.00;;
75737;SDS011;64356;45.638;13.764;2023-03-17T00:40:48;4.32;;;2.15;;
75737;SDS011;64356;45.638;13.764;2023-03-17T00:43:15;6.25;;;2.70;;
75737;SDS011;64356;45.638;13.764;2023-03-17T00:45:41;9.13;;;2.15;;
75737;SDS011;64356;45.638;13.764;2023-03-17T00:48:26;5.25;;;2.70;;
75737;SDS011;64356;45.638;13.764;2023-03-17T00:50:54;5.88;;;2.17;;
75737;SDS011;64356;45.638;13.764;2023-03-17T00:53:20;3.97;;;2.25;;
75737;SDS011;64356;45.638;13.764;2023-03-17T00:55:46;3.58;;;2.55;;
75737;SDS011;64356;45.638;13.764;2023-03-17T00:58:14;4.53;;;2.20;;
75737;SDS011;64356;45.638;13.764;2023-03-17T01:00:47;3.92;;;1.98;;
75737;SDS011;64356;45.638;13.764;2023-03-17T01:03:13;7.55;;;2.72;;
75737;SDS011;64356;45.638;13.764;2023-03-17T01:05:39;4.68;;;2.25;;
75737;SDS011;64356;45.638;13.764;2023-03-17T01:08:07;4.70;;;2.20;;
75737;SDS011;64356;45.638;13.764;2023-03-17T01:10:33;8.23;;;2.42;;
75737;SDS011;64356;45.638;13.764;2023-03-17T01:13:00;6.88;;;2.58;;
75737;SDS011;64356;45.638;13.764;2023-03-17T01:15:27;3.28;;;2.13;;
75737;SDS011;64356;45.638;13.764;2023-03-17T01:17:56;4.45;;;2.38;;
75737;SDS011;64356;45.638;13.764;2023-03-17T01:20:24;8.38;;;3.15;;
75737;SDS011;64356;45.638;13.764;2023-03-17T01:22:52;3.95;;;2.80;;
75737;SDS011;64356;45.638;13.764;2023-03-17T01:25:19;4.57;;;2.28;;
75737;SDS011;64356;45.638;13.764;2023-03-17T01:27:46;7.05;;;2.22;;
75737;SDS011;64356;45.638;13.764;2023-03-17T01:32:44;3.42;;;2.08;;
75737;SDS011;64356;45.638;13.764;2023-03-17T01:35:10;5.43;;;2.20;;
75737;SDS011;64356;45.638;13.764;2023-03-17T01:37:37;2.90;;;2.10;;
75737;SDS011;64356;45.638;13.764;2023-03-17T01:40:04;4.63;;;2.10;;
75737;SDS011;64356;45.638;13.764;2023-03-17T01:42:30;3.60;;;2.20;;
75737;SDS011;64356;45.638;13.764;2023-03-17T01:45:03;9.90;;;2.40;;
75737;SDS011;64356;45.638;13.764;2023-03-17T01:47:31;5.72;;;1.98;;
75737;SDS011;64356;45.638;13.764;2023-03-17T01:50:05;4.35;;;2.35;;
75737;SDS011;64356;45.638;13.764;2023-03-17T01:52:34;5.47;;;2.28;;
75737;SDS011;64356;45.638;13.764;2023-03-17T01:55:07;6.68;;;2.35;;
75737;SDS011;64356;45.638;13.764;2023-03-17T01:57:40;3.92;;;2.03;;
75737;SDS011;64356;45.638;13.764;2023-03-17T02:00:19;5.10;;;2.67;;
75737;SDS011;64356;45.638;13.764;2023-03-17T02:02:49;3.53;;;2.13;;
75737;SDS011;64356;45.638;13.764;2023-03-17T02:05:25;6.22;;;2.38;;
75737;SDS011;64356;45.638;13.764;2023-03-17T02:07:53;4.43;;;2.05;;
75737;SDS011;64356;45.638;13.764;2023-03-17T02:10:20;7.07;;;2.38;;
75737;SDS011;64356;45.638;13.764;2023-03-17T02:12:55;3.25;;;1.90;;
75737;SDS011;64356;45.638;13.764;2023-03-17T02:15:34;5.53;;;2.13;;
75737;SDS011;64356;45.638;13.764;2023-03-17T02:18:13;5.65;;;2.00;;
75737;SDS011;64356;45.638;13.764;2023-03-17T02:23:10;6.32;;;2.08;;
75737;SDS011;64356;45.638;13.764;2023-03-17T02:25:41;4.53;;;2.13;;
75737;SDS011;64356;45.638;13.764;2023-03-17T02:28:11;4.28;;;2.10;;
75737;SDS011;64356;45.638;13.764;2023-03-17T02:30:41;2.03;;;1.55;;
75737;SDS011;64356;45.638;13.764;2023-03-17T02:33:10;4.65;;;2.35;;
75737;SDS011;64356;45.638;13.764;2023-03-17T02:35:36;3.30;;;2.45;;
75737;SDS011;64356;45.638;13.764;2023-03-17T02:38:03;3.97;;;2.05;;
75737;SDS011;64356;45.638;13.764;2023-03-17T02:40:29;3.08;;;1.95;;
75737;SDS011;64356;45.638;13.764;2023-03-17T02:42:55;4.65;;;2.08;;
75737;SDS011;64356;45.638;13.764;2023-03-17T02:45:21;5.20;;;2.00;;
75737;SDS011;64356;45.638;13.764;2023-03-17T02:47:47;4.53;;;1.92;;
75737;SDS011;64356;45.638;13.764;2023-03-17T02:50:19;4.53;;;2.15;;
75737;SDS011;64356;45.638;13.764;2023-03-17T02:52:47;5.10;;;1.95;;
75737;SDS011;64356;45.638;13.764;2023-03-17T02:55:13;3.65;;;1.80;;
75737;SDS011;64356;45.638;13.764;2023-03-17T02:57:39;3.13;;;1.88;;
75737;SDS011;64356;45.638;13.764;2023-03-17T03:00:06;3.20;;;1.42;;
75737;SDS011;64356;45.638;13.764;2023-03-17T03:02:38;5.22;;;2.17;;
75737;SDS011;64356;45.638;13.764;2023-03-17T03:05:05;6.25;;;2.20;;
75737;SDS011;64356;45.638;13.764;2023-03-17T03:07:32;3.42;;;1.98;;
75737;SDS011;64356;45.638;13.764;2023-03-17T03:09:58;3.42;;;1.90;;
75737;SDS011;64356;45.638;13.764;2023-03-17T03:12:24;6.38;;;2.47;;
75737;SDS011;64356;45.638;13.764;2023-03-17T03:14:50;2.65;;;1.85;;
75737;SDS011;64356;45.638;13.764;2023-03-17T03:17:16;8.32;;;1.80;;
75737;SDS011;64356;45.638;13.764;2023-03-17T03:19:42;4.05;;;1.92;;
75737;SDS011;64356;45.638;13.764;2023-03-17T03:22:07;3.53;;;1.65;;
75737;SDS011;64356;45.638;13.764;2023-03-17T03:24:33;4.20;;;1.63;;
75737;SDS011;64356;45.638;13.764;2023-03-17T03:26:59;8.52;;;2.25;;
75737;SDS011;64356;45.638;13.764;2023-03-17T03:29:25;3.45;;;1.75;;
75737;SDS011;64356;45.638;13.764;2023-03-17T03:31:51;5.05;;;1.85;;
75737;SDS011;64356;45.638;13.764;2023-03-17T03:34:17;7.53;;;2.00;;
75737;SDS011;64356;45.638;13.764;2023-03-17T03:36:42;3.33;;;1.77;;
75737;SDS011;64356;45.638;13.764;2023-03-17T03:39:08;2.40;;;1.95;;
75737;SDS011;64356;45.638;13.764;2023-03-17T03:41:34;5.38;;;2.03;;
75737;SDS011;64356;45.638;13.764;2023-03-17T03:44:00;4.43;;;1.65;;
75737;SDS011;64356;45.638;13.764;2023-03-17T03:46:26;2.90;;;1.88;;
75737;SDS011;64356;45.638;13.764;2023-03-17T03:48:52;3.17;;;1.40;;
75737;SDS011;64356;45.638;13.764;2023-03-17T03:51:18;3.72;;;1.77;;
75737;SDS011;64356;45.638;13.764;2023-03-17T03:53:44;3.47;;;1.52;;
75737;SDS011;64356;45.638;13.764;2023-03-17T03:56:12;4.40;;;2.33;;
75737;SDS011;64356;45.638;13.764;2023-03-17T03:58:38;5.30;;;1.75;;
75737;SDS011;64356;45.638;13.764;2023-03-17T04:01:06;2.65;;;1.70;;
75737;SDS011;64356;45.638;13.764;2023-03-17T04:03:36;3.40;;;1.58;;
75737;SDS011;64356;45.638;13.764;2023-03-17T04:06:03;4.05;;;1.65;;
75737;SDS011;64356;45.638;13.764;2023-03-17T04:08:29;5.13;;;2.22;;
75737;SDS011;64356;45.638;13.764;2023-03-17T04:10:55;3.30;;;1.80;;
75737;SDS011;64356;45.638;13.764;2023-03-17T04:13:21;6.05;;;1.95;;
75737;SDS011;64356;45.638;13.764;2023-03-17T04:15:47;3.20;;;2.03;;
75737;SDS011;64356;45.638;13.764;2023-03-17T04:18:13;1.90;;;1.70;;
75737;SDS011;64356;45.638;13.764;2023-03-17T04:20:39;2.67;;;1.80;;
75737;SDS011;64356;45.638;13.764;2023-03-17T04:23:05;2.75;;;1.75;;
75737;SDS011;64356;45.638;13.764;2023-03-17T04:25:31;3.42;;;1.90;;
75737;SDS011;64356;45.638;13.764;2023-03-17T04:27:57;2.90;;;1.90;;
75737;SDS011;64356;45.638;13.764;2023-03-17T04:30:23;4.75;;;1.35;;
75737;SDS011;64356;45.638;13.764;2023-03-17T04:32:48;3.00;;;1.88;;
75737;SDS011;64356;45.638;13.764;2023-03-17T04:35:17;4.80;;;2.05;;
75737;SDS011;64356;45.638;13.764;2023-03-17T04:37:45;3.85;;;1.60;;
75737;SDS011;64356;45.638;13.764;2023-03-17T04:40:12;3.58;;;1.63;;
75737;SDS011;64356;45.638;13.764;2023-03-17T04:42:39;2.90;;;1.80;;
75737;SDS011;64356;45.638;13.764;2023-03-17T04:45:05;2.35;;;1.60;;
75737;SDS011;64356;45.638;13.764;2023-03-17T04:47:33;4.15;;;1.85;;
75737;SDS011;64356;45.638;13.764;2023-03-17T04:50:00;6.90;;;2.30;;
75737;SDS011;64356;45.638;13.764;2023-03-17T04:52:26;5.18;;;2.30;;
75737;SDS011;64356;45.638;13.764;2023-03-17T04:54:51;5.43;;;1.85;;
75737;SDS011;64356;45.638;13.764;2023-03-17T04:57:17;2.08;;;1.45;;
75737;SDS011;64356;45.638;13.764;2023-03-17T04:59:43;2.35;;;1.42;;
75737;SDS011;64356;45.638;13.764;2023-03-17T05:02:08;3.80;;;1.60;;
75737;SDS011;64356;45.638;13.764;2023-03-17T05:04:34;1.73;;;1.40;;
75737;SDS011;64356;45.638;13.764;2023-03-17T05:07:00;2.25;;;1.60;;
75737;SDS011;64356;45.638;13.764;2023-03-17T05:09:26;4.45;;;1.48;;
75737;SDS011;64356;45.638;13.764;2023-03-17T05:11:52;4.78;;;2.03;;
75737;SDS011;64356;45.638;13.764;2023-03-17T05:14:19;2.03;;;1.75;;
75737;SDS011;64356;45.638;13.764;2023-03-17T05:16:48;1.67;;;1.08;;
75737;SDS011;64356;45.638;13.764;2023-03-17T05:19:14;2.70;;;1.83;;
75737;SDS011;64356;45.638;13.764;2023-03-17T05:21:40;5.40;;;1.80;;
75737;SDS011;64356;45.638;13.764;2023-03-17T05:24:06;3.00;;;1.50;;
75737;SDS011;64356;45.638;13.764;2023-03-17T05:26:33;2.58;;;1.50;;
75737;SDS011;64356;45.638;13.764;2023-03-17T05:28:58;3.83;;;1.52;;
75737;SDS011;64356;45.638;13.764;2023-03-17T05:31:24;3.80;;;1.77;;
75737;SDS011;64356;45.638;13.764;2023-03-17T05:33:50;2.55;;;1.60;;
75737;SDS011;64356;45.638;13.764;2023-03-17T05:36:16;3.33;;;1.77;;
75737;SDS011;64356;45.638;13.764;2023-03-17T05:38:42;4.47;;;1.80;;
75737;SDS011;64356;45.638;13.764;2023-03-17T05:41:08;1.98;;;1.50;;
75737;SDS011;64356;45.638;13.764;2023-03-17T05:43:34;2.33;;;1.50;;
75737;SDS011;64356;45.638;13.764;2023-03-17T05:46:00;2.92;;;1.70;;
75737;SDS011;64356;45.638;13.764;2023-03-17T05:48:27;3.80;;;1.52;;
75737;SDS011;64356;45.638;13.764;2023-03-17T05:50:53;4.80;;;1.63;;
75737;SDS011;64356;45.638;13.764;2023-03-17T05:53:19;3.63;;;1.48;;
75737;SDS011;64356;45.638;13.764;2023-03-17T05:55:45;1.60;;;1.42;;
75737;SDS011;64356;45.638;13.764;2023-03-17T05:58:11;3.33;;;1.52;;
75737;SDS011;64356;45.638;13.764;2023-03-17T06:00:39;2.28;;;1.25;;
75737;SDS011;64356;45.638;13.764;2023-03-17T06:03:06;4.75;;;2.05;;
75737;SDS011;64356;45.638;13.764;2023-03-17T06:05:32;4.03;;;1.50;;
75737;SDS011;64356;45.638;13.764;2023-03-17T06:07:58;4.47;;;1.70;;
75737;SDS011;64356;45.638;13.764;2023-03-17T06:10:23;3.08;;;1.70;;
75737;SDS011;64356;45.638;13.764;2023-03-17T06:12:49;3.63;;;1.73;;
75737;SDS011;64356;45.638;13.764;2023-03-17T06:15:15;5.72;;;2.33;;
75737;SDS011;64356;45.638;13.764;2023-03-17T06:17:41;2.42;;;1.58;;
75737;SDS011;64356;45.638;13.764;2023-03-17T06:20:07;3.17;;;1.50;;
75737;SDS011;64356;45.638;13.764;2023-03-17T06:22:33;2.35;;;1.63;;
75737;SDS011;64356;45.638;13.764;2023-03-17T06:25:01;2.42;;;1.52;;
75737;SDS011;64356;45.638;13.764;2023-03-17T06:27:27;2.05;;;1.50;;
75737;SDS011;64356;45.638;13.764;2023-03-17T06:29:52;3.25;;;1.63;;
75737;SDS011;64356;45.638;13.764;2023-03-17T06:32:18;5.68;;;1.73;;
75737;SDS011;64356;45.638;13.764;2023-03-17T06:34:44;3.00;;;1.45;;
75737;SDS011;64356;45.638;13.764;2023-03-17T06:37:10;5.88;;;1.70;;
75737;SDS011;64356;45.638;13.764;2023-03-17T06:39:36;5.88;;;1.42;;
75737;SDS011;64356;45.638;13.764;2023-03-17T06:42:03;2.35;;;1.52;;
75737;SDS011;64356;45.638;13.764;2023-03-17T06:44:29;2.70;;;1.77;;
75737;SDS011;64356;45.638;13.764;2023-03-17T06:46:54;3.95;;;1.65;;
75737;SDS011;64356;45.638;13.764;2023-03-17T06:49:21;3.47;;;1.67;;
75737;SDS011;64356;45.638;13.764;2023-03-17T06:51:46;2.65;;;1.48;;
75737;SDS011;64356;45.638;13.764;2023-03-17T06:54:12;8.15;;;1.63;;
75737;SDS011;64356;45.638;13.764;2023-03-17T06:56:38;15.23;;;2.72;;
75737;SDS011;64356;45.638;13.764;2023-03-17T06:59:03;17.02;;;2.92;;
75737;SDS011;64356;45.638;13.764;2023-03-17T07:01:29;14.23;;;2.85;;
75737;SDS011;64356;45.638;13.764;2023-03-17T07:03:55;12.02;;;3.33;;
75737;SDS011;64356;45.638;13.764;2023-03-17T07:06:21;9.30;;;2.53;;
75737;SDS011;64356;45.638;13.764;2023-03-17T07:08:47;13.93;;;2.35;;
75737;SDS011;64356;45.638;13.764;2023-03-17T07:11:14;8.00;;;2.00;;
75737;SDS011;64356;45.638;13.764;2023-03-17T07:13:41;14.52;;;2.38;;
75737;SDS011;64356;45.638;13.764;2023-03-17T07:16:06;13.02;;;2.13;;
75737;SDS011;64356;45.638;13.764;2023-03-17T07:18:33;6.70;;;2.30;;
75737;SDS011;64356;45.638;13.764;2023-03-17T07:20:59;13.63;;;2.13;;
75737;SDS011;64356;45.638;13.764;2023-03-17T07:23:28;7.85;;;1.90;;
75737;SDS011;64356;45.638;13.764;2023-03-17T07:25:54;11.07;;;1.98;;
75737;SDS011;64356;45.638;13.764;2023-03-17T07:28:21;9.52;;;1.88;;
75737;SDS011;64356;45.638;13.764;2023-03-17T07:30:48;10.70;;;2.28;;
75737;SDS011;64356;45.638;13.764;2023-03-17T07:33:15;11.00;;;2.53;;
75737;SDS011;64356;45.638;13.764;2023-03-17T07:35:42;4.80;;;1.73;;
75737;SDS011;64356;45.638;13.764;2023-03-17T07:38:08;9.93;;;2.15;;
75737;SDS011;64356;45.638;13.764;2023-03-17T07:40:34;10.48;;;2.47;;
75737;SDS011;64356;45.638;13.764;2023-03-17T07:43:00;11.73;;;2.47;;
75737;SDS011;64356;45.638;13.764;2023-03-17T07:45:26;8.00;;;1.98;;
75737;SDS011;64356;45.638;13.764;2023-03-17T07:47:52;8.75;;;2.42;;
75737;SDS011;64356;45.638;13.764;2023-03-17T07:50:18;10.88;;;2.20;;
75737;SDS011;64356;45.638;13.764;2023-03-17T07:52:44;6.07;;;1.83;;
75737;SDS011;64356;45.638;13.764;2023-03-17T07:55:10;7.20;;;1.70;;
75737;SDS011;64356;45.638;13.764;2023-03-17T07:57:37;5.00;;;1.75;;
75737;SDS011;64356;45.638;13.764;2023-03-17T08:00:04;12.30;;;1.67;;
75737;SDS011;64356;45.638;13.764;2023-03-17T08:02:34;4.93;;;2.00;;
75737;SDS011;64356;45.638;13.764;2023-03-17T08:05:01;15.70;;;1.90;;
75737;SDS011;64356;45.638;13.764;2023-03-17T08:07:27;26.63;;;4.13;;
75737;SDS011;64356;45.638;13.764;2023-03-17T08:09:54;3.38;;;1.67;;
75737;SDS011;64356;45.638;13.764;2023-03-17T08:12:20;4.70;;;1.50;;
75737;SDS011;64356;45.638;13.764;2023-03-17T08:14:46;6.45;;;1.85;;
75737;SDS011;64356;45.638;13.764;2023-03-17T08:17:11;53.78;;;3.20;;
75737;SDS011;64356;45.638;13.764;2023-03-17T08:19:37;9.82;;;2.22;;
75737;SDS011;64356;45.638;13.764;2023-03-17T08:22:03;14.57;;;1.75;;
75737;SDS011;64356;45.638;13.764;2023-03-17T08:24:29;9.57;;;1.80;;
75737;SDS011;64356;45.638;13.764;2023-03-17T08:26:55;3.38;;;1.20;;
75737;SDS011;64356;45.638;13.764;2023-03-17T08:29:20;4.00;;;1.70;;
75737;SDS011;64356;45.638;13.764;2023-03-17T08:31:47;6.40;;;1.88;;
75737;SDS011;64356;45.638;13.764;2023-03-17T08:34:13;7.22;;;1.85;;
75737;SDS011;64356;45.638;13.764;2023-03-17T08:36:40;6.15;;;1.65;;
75737;SDS011;64356;45.638;13.764;2023-03-17T08:39:06;12.55;;;2.35;;
75737;SDS011;64356;45.638;13.764;2023-03-17T08:41:33;11.30;;;1.85;;
75737;SDS011;64356;45.638;13.764;2023-03-17T08:43:59;3.22;;;1.33;;
75737;SDS011;64356;45.638;13.764;2023-03-17T08:46:26;6.78;;;1.67;;
75737;SDS011;64356;45.638;13.764;2023-03-17T08:48:54;4.97;;;1.80;;
75737;SDS011;64356;45.638;13.764;2023-03-17T08:51:22;14.30;;;1.50;;
75737;SDS011;64356;45.638;13.764;2023-03-17T08:53:51;10.70;;;2.47;;
75737;SDS011;64356;45.638;13.764;2023-03-17T08:56:17;16.25;;;2.30;;
75737;SDS011;64356;45.638;13.764;2023-03-17T08:58:45;14.30;;;1.98;;
75737;SDS011;64356;45.638;13.764;2023-03-17T09:01:10;13.80;;;2.20;;
75737;SDS011;64356;45.638;13.764;2023-03-17T09:03:37;30.58;;;2.53;;
75737;SDS011;64356;45.638;13.764;2023-03-17T09:06:04;15.10;;;2.30;;
75737;SDS011;64356;45.638;13.764;2023-03-17T09:08:34;15.57;;;2.47;;
75737;SDS011;64356;45.638;13.764;2023-03-17T09:11:04;15.70;;;2.08;;
75737;SDS011;64356;45.638;13.764;2023-03-17T09:13:31;17.00;;;2.33;;
75737;SDS011;64356;45.638;13.764;2023-03-17T09:16:01;13.88;;;2.72;;
75737;SDS011;64356;45.638;13.764;2023-03-17T09:18:27;8.20;;;2.80;;
75737;SDS011;64356;45.638;13.764;2023-03-17T09:20:55;5.63;;;2.08;;
75737;SDS011;64356;45.638;13.764;2023-03-17T09:23:22;11.93;;;2.33;;
75737;SDS011;64356;45.638;13.764;2023-03-17T09:25:48;15.98;;;2.55;;
75737;SDS011;64356;45.638;13.764;2023-03-17T09:28:13;4.95;;;1.92;;
75737;SDS011;64356;45.638;13.764;2023-03-17T09:30:40;12.10;;;2.15;;
75737;SDS011;64356;45.638;13.764;2023-03-17T09:33:09;9.70;;;2.00;;
75737;SDS011;64356;45.638;13.764;2023-03-17T09:35:36;12.93;;;1.98;;
75737;SDS011;64356;45.638;13.764;2023-03-17T09:38:02;5.55;;;1.58;;
75737;SDS011;64356;45.638;13.764;2023-03-17T09:46:04;8.52;;;1.83;;
75737;SDS011;64356;45.638;13.764;2023-03-17T09:48:43;9.65;;;1.90;;
75737;SDS011;64356;45.638;13.764;2023-03-17T09:51:23;10.77;;;2.03;;
75737;SDS011;64356;45.638;13.764;2023-03-17T09:56:27;9.95;;;1.95;;
75737;SDS011;64356;45.638;13.764;2023-03-17T10:01:30;5.32;;;1.60;;
75737;SDS011;64356;45.638;13.764;2023-03-17T10:03:56;13.40;;;1.67;;
75737;SDS011;64356;45.638;13.764;2023-03-17T10:06:30;8.18;;;2.55;;
75737;SDS011;64356;45.638;13.764;2023-03-17T10:09:25;7.57;;;1.48;;
75737;SDS011;64356;45.638;13.764;2023-03-17T10:17:24;13.27;;;2.45;;
75737;SDS011;64356;45.638;13.764;2023-03-17T10:20:01;7.68;;;1.80;;
75737;SDS011;64356;45.638;13.764;2023-03-17T10:22:50;5.40;;;1.85;;
75737;SDS011;64356;45.638;13.764;2023-03-17T10:25:27;5.13;;;1.80;;
75737;SDS011;64356;45.638;13.764;2023-03-17T10:27:58;7.25;;;2.20;;
75737;SDS011;64356;45.638;13.764;2023-03-17T10:30:40;12.35;;;2.13;;
75737;SDS011;64356;45.638;13.764;2023-03-17T10:33:06;11.38;;;2.00;;
75737;SDS011;64356;45.638;13.764;2023-03-17T10:35:32;6.63;;;1.70;;
75737;SDS011;64356;45.638;13.764;2023-03-17T10:38:00;8.27;;;2.00;;
75737;SDS011;64356;45.638;13.764;2023-03-17T10:40:47;3.13;;;1.77;;
75737;SDS011;64356;45.638;13.764;2023-03-17T10:43:26;13.85;;;1.98;;
75737;SDS011;64356;45.638;13.764;2023-03-17T10:46:01;9.98;;;2.00;;
75737;SDS011;64356;45.638;13.764;2023-03-17T10:48:29;7.13;;;1.58;;
75737;SDS011;64356;45.638;13.764;2023-03-17T10:50:59;7.00;;;1.88;;
75737;SDS011;64356;45.638;13.764;2023-03-17T10:53:29;6.82;;;1.83;;
75737;SDS011;64356;45.638;13.764;2023-03-17T10:56:09;9.15;;;1.73;;
75737;SDS011;64356;45.638;13.764;2023-03-17T10:58:47;5.93;;;1.90;;
75737;SDS011;64356;45.638;13.764;2023-03-17T11:03:44;23.83;;;2.15;;
75737;SDS011;64356;45.638;13.764;2023-03-17T11:06:15;6.75;;;2.00;;
75737;SDS011;64356;45.638;13.764;2023-03-17T11:08:47;14.13;;;2.08;;
75737;SDS011;64356;45.638;13.764;2023-03-17T11:11:30;8.38;;;2.10;;
75737;SDS011;64356;45.638;13.764;2023-03-17T11:14:02;16.80;;;1.95;;
75737;SDS011;64356;45.638;13.764;2023-03-17T11:16:36;7.40;;;1.98;;
75737;SDS011;64356;45.638;13.764;2023-03-17T11:19:04;16.02;;;2.10;;
75737;SDS011;64356;45.638;13.764;2023-03-17T11:21:43;8.30;;;2.00;;
75737;SDS011;64356;45.638;13.764;2023-03-17T11:24:18;12.40;;;1.88;;
75737;SDS011;64356;45.638;13.764;2023-03-17T11:26:55;8.82;;;2.78;;
75737;SDS011;64356;45.638;13.764;2023-03-17T11:34:38;7.10;;;1.52;;
75737;SDS011;64356;45.638;13.764;2023-03-17T11:45:44;10.50;;;2.03;;
75737;SDS011;64356;45.638;13.764;2023-03-17T11:48:23;3.78;;;1.58;;
75737;SDS011;64356;45.638;13.764;2023-03-17T11:51:21;5.47;;;1.35;;
75737;SDS011;64356;45.638;13.764;2023-03-17T11:54:07;3.33;;;1.40;;
75737;SDS011;64356;45.638;13.764;2023-03-17T11:56:41;3.08;;;2.05;;
75737;SDS011;64356;45.638;13.764;2023-03-17T11:59:38;22.38;;;2.47;;
75737;SDS011;64356;45.638;13.764;2023-03-17T12:02:09;20.33;;;2.80;;
75737;SDS011;64356;45.638;13.764;2023-03-17T12:10:19;16.13;;;2.00;;
75737;SDS011;64356;45.638;13.764;2023-03-17T12:12:51;15.65;;;1.73;;
75737;SDS011;64356;45.638;13.764;2023-03-17T12:18:20;8.57;;;2.53;;
75737;SDS011;64356;45.638;13.764;2023-03-17T12:20:58;12.10;;;2.40;;
75737;SDS011;64356;45.638;13.764;2023-03-17T12:23:33;21.45;;;2.50;;
75737;SDS011;64356;45.638;13.764;2023-03-17T12:28:47;5.93;;;2.28;;
75737;SDS011;64356;45.638;13.764;2023-03-17T12:31:24;15.32;;;2.17;;
75737;SDS011;64356;45.638;13.764;2023-03-17T12:36:39;8.18;;;2.25;;
75737;SDS011;64356;45.638;13.764;2023-03-17T12:39:08;11.63;;;2.05;;
75737;SDS011;64356;45.638;13.764;2023-03-17T12:55:02;18.55;;;4.65;;
75737;SDS011;64356;45.638;13.764;2023-03-17T12:57:46;9.63;;;4.03;;
75737;SDS011;64356;45.638;13.764;2023-03-17T13:00:30;11.82;;;3.60;;
75737;SDS011;64356;45.638;13.764;2023-03-17T13:05:50;9.85;;;4.50;;
75737;SDS011;64356;45.638;13.764;2023-03-17T13:08:34;6.57;;;4.15;;
75737;SDS011;64356;45.638;13.764;2023-03-17T13:14:14;6.90;;;3.67;;
75737;SDS011;64356;45.638;13.764;2023-03-17T13:16:51;8.27;;;3.67;;
75737;SDS011;64356;45.638;13.764;2023-03-17T13:19:32;10.30;;;4.38;;
75737;SDS011;64356;45.638;13.764;2023-03-17T13:28:14;7.18;;;3.53;;
75737;SDS011;64356;45.638;13.764;2023-03-17T13:41:10;12.20;;;4.07;;
75737;SDS011;64356;45.638;13.764;2023-03-17T13:48:59;6.53;;;3.13;;
75737;SDS011;64356;45.638;13.764;2023-03-17T13:51:31;5.10;;;2.63;;
75737;SDS011;64356;45.638;13.764;2023-03-17T13:56:46;8.07;;;3.42;;
75737;SDS011;64356;45.638;13.764;2023-03-17T13:59:15;4.63;;;3.15;;
75737;SDS011;64356;45.638;13.764;2023-03-17T14:01:44;6.32;;;3.45;;
75737;SDS011;64356;45.638;13.764;2023-03-17T14:04:19;6.22;;;4.22;;
75737;SDS011;64356;45.638;13.764;2023-03-17T14:06:49;10.20;;;4.93;;
75737;SDS011;64356;45.638;13.764;2023-03-17T14:11:50;9.05;;;5.00;;
75737;SDS011;64356;45.638;13.764;2023-03-17T14:17:09;6.93;;;4.45;;
75737;SDS011;64356;45.638;13.764;2023-03-17T14:19:58;8.48;;;4.32;;
75737;SDS011;64356;45.638;13.764;2023-03-17T14:22:37;6.22;;;4.28;;
75737;SDS011;64356;45.638;13.764;2023-03-17T14:25:05;7.85;;;4.95;;
75737;SDS011;64356;45.638;13.764;2023-03-17T14:27:46;8.48;;;4.25;;
75737;SDS011;64356;45.638;13.764;2023-03-17T14:30:16;6.25;;;4.13;;
75737;SDS011;64356;45.638;13.764;2023-03-17T14:32:47;6.30;;;4.10;;
75737;SDS011;64356;45.638;13.764;2023-03-17T14:35:15;6.80;;;3.55;;
75737;SDS011;64356;45.638;13.764;2023-03-17T14:37:42;10.25;;;3.75;;
75737;SDS011;64356;45.638;13.764;2023-03-17T14:40:21;32.95;;;3.75;;
75737;SDS011;64356;45.638;13.764;2023-03-17T14:42:51;4.03;;;3.13;;
75737;SDS011;64356;45.638;13.764;2023-03-17T14:45:21;9.52;;;3.58;;
75737;SDS011;64356;45.638;13.764;2023-03-17T14:47:50;7.20;;;3.83;;
75737;SDS011;64356;45.638;13.764;2023-03-17T14:50:23;8.88;;;3.95;;
75737;SDS011;64356;45.638;13.764;2023-03-17T14:52:52;7.32;;;3.58;;
75737;SDS011;64356;45.638;13.764;2023-03-17T14:55:19;5.80;;;3.30;;
75737;SDS011;64356;45.638;13.764;2023-03-17T14:57:49;4.53;;;2.90;;
75737;SDS011;64356;45.638;13.764;2023-03-17T15:00:52;10.25;;;3.47;;
75737;SDS011;64356;45.638;13.764;2023-03-17T15:03:15;4.05;;;2.72;;
75737;SDS011;64356;45.638;13.764;2023-03-17T15:05:43;4.35;;;2.50;;
75737;SDS011;64356;45.638;13.764;2023-03-17T15:10:57;3.50;;;2.05;;
75737;SDS011;64356;45.638;13.764;2023-03-17T15:13:25;7.57;;;2.50;;
75737;SDS011;64356;45.638;13.764;2023-03-17T15:15:51;9.40;;;2.30;;
75737;SDS011;64356;45.638;13.764;2023-03-17T15:18:17;5.70;;;2.40;;
75737;SDS011;64356;45.638;13.764;2023-03-17T15:20:48;5.90;;;1.80;;
75737;SDS011;64356;45.638;13.764;2023-03-17T15:25:43;4.47;;;2.55;;
75737;SDS011;64356;45.638;13.764;2023-03-17T15:30:38;3.08;;;2.10;;
75737;SDS011;64356;45.638;13.764;2023-03-17T15:33:16;5.25;;;2.05;;
75737;SDS011;64356;45.638;13.764;2023-03-17T15:35:46;8.27;;;2.33;;
75737;SDS011;64356;45.638;13.764;2023-03-17T15:38:12;4.60;;;1.75;;
75737;SDS011;64356;45.638;13.764;2023-03-17T15:40:37;7.55;;;2.20;;
75737;SDS011;64356;45.638;13.764;2023-03-17T15:43:03;8.88;;;1.85;;
75737;SDS011;64356;45.638;13.764;2023-03-17T15:45:29;2.17;;;1.55;;
75737;SDS011;64356;45.638;13.764;2023-03-17T15:47:55;3.28;;;1.50;;
75737;SDS011;64356;45.638;13.764;2023-03-17T15:52:53;4.22;;;1.73;;
75737;SDS011;64356;45.638;13.764;2023-03-17T15:57:55;2.38;;;1.40;;
75737;SDS011;64356;45.638;13.764;2023-03-17T16:00:22;3.90;;;1.80;;
75737;SDS011;64356;45.638;13.764;2023-03-17T16:02:51;4.03;;;1.20;;
75737;SDS011;64356;45.638;13.764;2023-03-17T16:05:22;4.70;;;1.30;;
75737;SDS011;64356;45.638;13.764;2023-03-17T16:07:50;6.32;;;1.45;;
75737;SDS011;64356;45.638;13.764;2023-03-17T16:10:20;3.75;;;1.38;;
75737;SDS011;64356;45.638;13.764;2023-03-17T16:12:47;3.47;;;1.10;;
75737;SDS011;64356;45.638;13.764;2023-03-17T16:15:14;8.30;;;1.27;;
75737;SDS011;64356;45.638;13.764;2023-03-17T16:17:42;6.03;;;1.80;;
75737;SDS011;64356;45.638;13.764;2023-03-17T16:22:52;1.85;;;0.98;;
75737;SDS011;64356;45.638;13.764;2023-03-17T16:27:56;8.43;;;1.20;;
75737;SDS011;64356;45.638;13.764;2023-03-17T16:30:32;2.35;;;0.98;;
75737;SDS011;64356;45.638;13.764;2023-03-17T16:33:02;6.68;;;1.27;;
75737;SDS011;64356;45.638;13.764;2023-03-17T16:35:40;4.93;;;1.45;;
75737;SDS011;64356;45.638;13.764;2023-03-17T16:38:09;4.90;;;1.17;;
75737;SDS011;64356;45.638;13.764;2023-03-17T16:43:03;4.82;;;0.90;;
75737;SDS011;64356;45.638;13.764;2023-03-17T16:45:31;1.77;;;1.33;;